sensor_id;sensor_type;location;lat;lon;timestamp;temperature;humidity
55785;DHT22;41709;52.536;5.688;2023-04-01T00:02:07;11.00;91.90
55785;DHT22;41709;52.536;5.688;2023-04-01T00:04:32;11.00;91.90
55785;DHT22;41709;52.536;5.688;2023-04-01T00:06:59;11.00;91.90
55785;DHT22;41709;52.536;5.688;2023-04-01T00:09:25;11.00;91.90
55785;DHT22;41709;52.536;5.688;2023-04-01T00:11:51;11.10;92.00
55785;DHT22;41709;52.536;5.688;2023-04-01T00:14:16;11.10;92.00
55785;DHT22;41709;52.536;5.688;2023-04-01T00:16:42;11.10;91.90
55785;DHT22;41709;52.536;5.688;2023-04-01T00:19:07;11.10;91.90
55785;DHT22;41709;52.536;5.688;2023-04-01T00:21:33;11.10;91.90
55785;DHT22;41709;52.536;5.688;2023-04-01T00:23:59;11.10;91.90
55785;DHT22;41709;52.536;5.688;2023-04-01T00:26:25;11.20;92.00
55785;DHT22;41709;52.536;5.688;2023-04-01T00:28:51;11.10;91.90
55785;DHT22;41709;52.536;5.688;2023-04-01T00:31:18;11.10;91.90
55785;DHT22;41709;52.536;5.688;2023-04-01T00:33:43;11.10;91.90
55785;DHT22;41709;52.536;5.688;2023-04-01T00:36:14;11.20;91.90
55785;DHT22;41709;52.536;5.688;2023-04-01T00:38:40;11.20;91.90
55785;DHT22;41709;52.536;5.688;2023-04-01T00:41:08;11.20;91.90
55785;DHT22;41709;52.536;5.688;2023-04-01T00:43:34;11.20;91.90
55785;DHT22;41709;52.536;5.688;2023-04-01T00:46:00;11.20;91.90
55785;DHT22;41709;52.536;5.688;2023-04-01T00:48:30;11.20;91.90
55785;DHT22;41709;52.536;5.688;2023-04-01T00:51:01;11.20;91.80
55785;DHT22;41709;52.536;5.688;2023-04-01T00:53:28;11.20;91.80
55785;DHT22;41709;52.536;5.688;2023-04-01T00:56:05;11.20;91.80
55785;DHT22;41709;52.536;5.688;2023-04-01T00:58:35;11.20;91.80
55785;DHT22;41709;52.536;5.688;2023-04-01T01:01:02;11.20;91.80
55785;DHT22;41709;52.536;5.688;2023-04-01T01:03:28;11.20;91.80
55785;DHT22;41709;52.536;5.688;2023-04-01T01:06:10;11.20;91.80
55785;DHT22;41709;52.536;5.688;2023-04-01T01:11:52;11.20;91.80
55785;DHT22;41709;52.536;5.688;2023-04-01T01:17:40;11.20;91.80
55785;DHT22;41709;52.536;5.688;2023-04-01T01:34:32;11.00;91.80
55785;DHT22;41709;52.536;5.688;2023-04-01T01:37:12;11.00;92.00
55785;DHT22;41709;52.536;5.688;2023-04-01T01:39:39;11.00;92.00
55785;DHT22;41709;52.536;5.688;2023-04-01T01:42:10;11.00;92.00
55785;DHT22;41709;52.536;5.688;2023-04-01T01:44:38;10.90;91.90
55785;DHT22;41709;52.536;5.688;2023-04-01T01:47:05;10.90;92.00
55785;DHT22;41709;52.536;5.688;2023-04-01T01:49:32;10.90;92.10
55785;DHT22;41709;52.536;5.688;2023-04-01T01:51:59;10.80;92.20
55785;DHT22;41709;52.536;5.688;2023-04-01T01:54:25;10.80;92.20
55785;DHT22;41709;52.536;5.688;2023-04-01T01:57:04;10.80;92.30
55785;DHT22;41709;52.536;5.688;2023-04-01T01:59:33;10.70;92.30
55785;DHT22;41709;52.536;5.688;2023-04-01T02:02:02;10.70;92.40
55785;DHT22;41709;52.536;5.688;2023-04-01T02:04:35;10.70;92.40
55785;DHT22;41709;52.536;5.688;2023-04-01T02:07:08;10.70;92.40
55785;DHT22;41709;52.536;5.688;2023-04-01T02:09:36;10.70;92.40
55785;DHT22;41709;52.536;5.688;2023-04-01T02:12:11;10.60;92.40
55785;DHT22;41709;52.536;5.688;2023-04-01T02:17:21;10.60;92.40
55785;DHT22;41709;52.536;5.688;2023-04-01T02:19:59;10.60;92.40
55785;DHT22;41709;52.536;5.688;2023-04-01T02:22:29;10.60;92.40
55785;DHT22;41709;52.536;5.688;2023-04-01T02:25:05;10.70;92.50
55785;DHT22;41709;52.536;5.688;2023-04-01T02:27:31;10.70;92.50
55785;DHT22;41709;52.536;5.688;2023-04-01T02:29:57;10.70;92.50
55785;DHT22;41709;52.536;5.688;2023-04-01T02:32:23;10.70;92.50
55785;DHT22;41709;52.536;5.688;2023-04-01T02:34:50;10.70;92.40
55785;DHT22;41709;52.536;5.688;2023-04-01T02:37:17;10.70;92.40
55785;DHT22;41709;52.536;5.688;2023-04-01T02:39:43;10.70;92.50
55785;DHT22;41709;52.536;5.688;2023-04-01T02:42:08;10.70;92.50
55785;DHT22;41709;52.536;5.688;2023-04-01T02:44:34;10.70;92.50
55785;DHT22;41709;52.536;5.688;2023-04-01T02:47:00;10.70;92.40
55785;DHT22;41709;52.536;5.688;2023-04-01T02:49:26;10.70;92.40
55785;DHT22;41709;52.536;5.688;2023-04-01T02:51:51;10.70;92.40
55785;DHT22;41709;52.536;5.688;2023-04-01T02:54:18;10.70;92.40
55785;DHT22;41709;52.536;5.688;2023-04-01T02:56:44;10.70;92.30
55785;DHT22;41709;52.536;5.688;2023-04-01T02:59:09;10.70;92.30
55785;DHT22;41709;52.536;5.688;2023-04-01T03:01:35;10.70;92.30
55785;DHT22;41709;52.536;5.688;2023-04-01T03:04:01;10.70;92.30
55785;DHT22;41709;52.536;5.688;2023-04-01T03:06:26;10.70;92.30
55785;DHT22;41709;52.536;5.688;2023-04-01T03:08:52;10.70;92.30
55785;DHT22;41709;52.536;5.688;2023-04-01T03:11:17;10.70;92.30
55785;DHT22;41709;52.536;5.688;2023-04-01T03:13:43;10.70;92.30
55785;DHT22;41709;52.536;5.688;2023-04-01T03:16:08;10.70;92.30
55785;DHT22;41709;52.536;5.688;2023-04-01T03:18:34;10.70;92.20
55785;DHT22;41709;52.536;5.688;2023-04-01T03:21:13;10.70;92.20
55785;DHT22;41709;52.536;5.688;2023-04-01T03:23:39;10.70;92.30
55785;DHT22;41709;52.536;5.688;2023-04-01T03:26:05;10.70;92.20
55785;DHT22;41709;52.536;5.688;2023-04-01T03:28:30;10.70;92.20
55785;DHT22;41709;52.536;5.688;2023-04-01T03:30:56;10.70;92.20
55785;DHT22;41709;52.536;5.688;2023-04-01T03:33:21;10.70;92.20
55785;DHT22;41709;52.536;5.688;2023-04-01T03:35:47;10.70;92.20
55785;DHT22;41709;52.536;5.688;2023-04-01T03:38:12;10.70;92.20
55785;DHT22;41709;52.536;5.688;2023-04-01T03:40:42;10.70;92.20
55785;DHT22;41709;52.536;5.688;2023-04-01T03:43:07;10.70;92.20
55785;DHT22;41709;52.536;5.688;2023-04-01T03:45:35;10.70;92.20
55785;DHT22;41709;52.536;5.688;2023-04-01T03:48:01;10.70;92.20
55785;DHT22;41709;52.536;5.688;2023-04-01T03:50:26;10.70;92.20
55785;DHT22;41709;52.536;5.688;2023-04-01T03:52:52;10.70;92.20
55785;DHT22;41709;52.536;5.688;2023-04-01T03:55:17;10.60;92.20
55785;DHT22;41709;52.536;5.688;2023-04-01T03:57:43;10.70;92.30
55785;DHT22;41709;52.536;5.688;2023-04-01T04:00:10;10.70;92.20
55785;DHT22;41709;52.536;5.688;2023-04-01T04:02:35;10.70;92.20
55785;DHT22;41709;52.536;5.688;2023-04-01T04:05:01;10.70;92.20
55785;DHT22;41709;52.536;5.688;2023-04-01T04:07:27;10.70;92.20
55785;DHT22;41709;52.536;5.688;2023-04-01T04:09:52;10.70;92.30
55785;DHT22;41709;52.536;5.688;2023-04-01T04:12:18;10.70;92.30
55785;DHT22;41709;52.536;5.688;2023-04-01T04:14:44;10.70;92.30
55785;DHT22;41709;52.536;5.688;2023-04-01T04:17:12;10.70;92.20
55785;DHT22;41709;52.536;5.688;2023-04-01T04:19:42;10.70;92.30
55785;DHT22;41709;52.536;5.688;2023-04-01T04:22:07;10.70;92.30
55785;DHT22;41709;52.536;5.688;2023-04-01T04:24:37;10.70;92.40
55785;DHT22;41709;52.536;5.688;2023-04-01T04:27:02;10.70;92.30
55785;DHT22;41709;52.536;5.688;2023-04-01T04:29:28;10.80;92.60
55785;DHT22;41709;52.536;5.688;2023-04-01T04:31:54;10.80;92.40
55785;DHT22;41709;52.536;5.688;2023-04-01T04:34:19;10.80;92.30
55785;DHT22;41709;52.536;5.688;2023-04-01T04:36:46;10.80;92.30
55785;DHT22;41709;52.536;5.688;2023-04-01T04:39:12;10.80;92.30
55785;DHT22;41709;52.536;5.688;2023-04-01T04:41:38;10.80;92.30
55785;DHT22;41709;52.536;5.688;2023-04-01T04:44:04;10.90;92.30
55785;DHT22;41709;52.536;5.688;2023-04-01T04:46:30;10.90;92.30
55785;DHT22;41709;52.536;5.688;2023-04-01T04:48:56;10.90;92.20
55785;DHT22;41709;52.536;5.688;2023-04-01T04:51:21;10.90;92.10
55785;DHT22;41709;52.536;5.688;2023-04-01T04:53:47;10.80;92.10
55785;DHT22;41709;52.536;5.688;2023-04-01T04:56:17;10.90;92.00
55785;DHT22;41709;52.536;5.688;2023-04-01T04:58:43;10.80;91.90
55785;DHT22;41709;52.536;5.688;2023-04-01T05:01:11;10.80;92.00
55785;DHT22;41709;52.536;5.688;2023-04-01T05:03:38;10.80;91.90
55785;DHT22;41709;52.536;5.688;2023-04-01T05:06:04;10.90;92.30
55785;DHT22;41709;52.536;5.688;2023-04-01T05:08:30;10.80;91.90
55785;DHT22;41709;52.536;5.688;2023-04-01T05:10:56;10.80;91.90
55785;DHT22;41709;52.536;5.688;2023-04-01T05:13:22;10.80;91.90
55785;DHT22;41709;52.536;5.688;2023-04-01T05:15:47;10.80;92.00
55785;DHT22;41709;52.536;5.688;2023-04-01T05:18:13;10.80;92.00
55785;DHT22;41709;52.536;5.688;2023-04-01T05:20:38;10.70;92.00
55785;DHT22;41709;52.536;5.688;2023-04-01T05:23:04;10.70;92.00
55785;DHT22;41709;52.536;5.688;2023-04-01T05:25:29;10.70;92.00
55785;DHT22;41709;52.536;5.688;2023-04-01T05:27:55;10.70;92.10
55785;DHT22;41709;52.536;5.688;2023-04-01T05:30:21;10.70;92.10
55785;DHT22;41709;52.536;5.688;2023-04-01T05:32:46;10.70;92.10
55785;DHT22;41709;52.536;5.688;2023-04-01T05:35:12;10.70;92.10
55785;DHT22;41709;52.536;5.688;2023-04-01T05:37:38;10.70;92.10
55785;DHT22;41709;52.536;5.688;2023-04-01T05:40:04;10.70;92.20
55785;DHT22;41709;52.536;5.688;2023-04-01T05:42:30;10.70;92.30
55785;DHT22;41709;52.536;5.688;2023-04-01T05:44:55;10.60;92.30
55785;DHT22;41709;52.536;5.688;2023-04-01T05:47:22;10.60;92.40
55785;DHT22;41709;52.536;5.688;2023-04-01T05:49:47;10.60;92.40
55785;DHT22;41709;52.536;5.688;2023-04-01T05:52:13;10.60;92.40
55785;DHT22;41709;52.536;5.688;2023-04-01T05:54:38;10.60;92.40
55785;DHT22;41709;52.536;5.688;2023-04-01T05:57:04;10.60;92.40
55785;DHT22;41709;52.536;5.688;2023-04-01T05:59:29;10.60;92.40
55785;DHT22;41709;52.536;5.688;2023-04-01T06:01:57;10.60;92.40
55785;DHT22;41709;52.536;5.688;2023-04-01T06:04:22;10.60;92.60
55785;DHT22;41709;52.536;5.688;2023-04-01T06:06:48;10.50;92.60
55785;DHT22;41709;52.536;5.688;2023-04-01T06:09:17;10.60;92.80
55785;DHT22;41709;52.536;5.688;2023-04-01T06:20:52;10.30;93.30
55785;DHT22;41709;52.536;5.688;2023-04-01T06:23:14;10.20;93.40
55785;DHT22;41709;52.536;5.688;2023-04-01T06:28:54;10.10;93.60
55785;DHT22;41709;52.536;5.688;2023-04-01T06:34:37;10.10;93.80
55785;DHT22;41709;52.536;5.688;2023-04-01T06:40:12;10.10;93.90
55785;DHT22;41709;52.536;5.688;2023-04-01T06:48:38;10.00;94.10
55785;DHT22;41709;52.536;5.688;2023-04-01T06:51:31;10.00;94.10
55785;DHT22;41709;52.536;5.688;2023-04-01T06:54:44;9.90;94.40
55785;DHT22;41709;52.536;5.688;2023-04-01T06:56:49;9.90;94.40
55785;DHT22;41709;52.536;5.688;2023-04-01T06:59:19;9.90;94.40
55785;DHT22;41709;52.536;5.688;2023-04-01T07:01:49;9.90;94.50
55785;DHT22;41709;52.536;5.688;2023-04-01T07:04:29;9.90;94.50
55785;DHT22;41709;52.536;5.688;2023-04-01T07:06:59;9.90;94.60
55785;DHT22;41709;52.536;5.688;2023-04-01T07:09:35;9.90;94.70
55785;DHT22;41709;52.536;5.688;2023-04-01T07:12:17;9.90;94.60
55785;DHT22;41709;52.536;5.688;2023-04-01T07:14:46;9.90;94.70
55785;DHT22;41709;52.536;5.688;2023-04-01T07:17:15;9.90;94.50
55785;DHT22;41709;52.536;5.688;2023-04-01T07:22:45;9.80;94.70
55785;DHT22;41709;52.536;5.688;2023-04-01T07:25:24;9.90;94.70
55785;DHT22;41709;52.536;5.688;2023-04-01T07:27:56;9.80;94.70
55785;DHT22;41709;52.536;5.688;2023-04-01T07:30:29;9.80;94.70
55785;DHT22;41709;52.536;5.688;2023-04-01T07:33:19;9.80;94.80
55785;DHT22;41709;52.536;5.688;2023-04-01T07:38:49;9.80;94.80
55785;DHT22;41709;52.536;5.688;2023-04-01T07:41:39;9.80;94.90
55785;DHT22;41709;52.536;5.688;2023-04-01T07:44:35;9.80;94.90
55785;DHT22;41709;52.536;5.688;2023-04-01T07:49:54;9.90;94.90
55785;DHT22;41709;52.536;5.688;2023-04-01T07:52:59;9.90;94.80
55785;DHT22;41709;52.536;5.688;2023-04-01T07:55:45;9.90;94.90
55785;DHT22;41709;52.536;5.688;2023-04-01T07:58:26;10.00;95.00
55785;DHT22;41709;52.536;5.688;2023-04-01T08:01:05;10.10;95.00
55785;DHT22;41709;52.536;5.688;2023-04-01T08:06:31;10.20;94.70
55785;DHT22;41709;52.536;5.688;2023-04-01T08:19:31;10.40;94.40
55785;DHT22;41709;52.536;5.688;2023-04-01T08:22:09;10.50;94.40
55785;DHT22;41709;52.536;5.688;2023-04-01T08:24:43;10.50;94.20
55785;DHT22;41709;52.536;5.688;2023-04-01T08:32:35;10.60;94.10
55785;DHT22;41709;52.536;5.688;2023-04-01T08:35:38;10.60;94.10
55785;DHT22;41709;52.536;5.688;2023-04-01T08:43:51;10.60;94.20
55785;DHT22;41709;52.536;5.688;2023-04-01T08:49:26;10.60;94.00
55785;DHT22;41709;52.536;5.688;2023-04-01T09:10:59;10.40;94.10
55785;DHT22;41709;52.536;5.688;2023-04-01T09:16:23;10.30;94.20
55785;DHT22;41709;52.536;5.688;2023-04-01T09:27:10;10.40;94.30
55785;DHT22;41709;52.536;5.688;2023-04-01T09:32:35;10.30;94.20
55785;DHT22;41709;52.536;5.688;2023-04-01T09:35:48;10.30;94.20
55785;DHT22;41709;52.536;5.688;2023-04-01T09:41:30;10.30;94.20
55785;DHT22;41709;52.536;5.688;2023-04-01T09:44:03;10.30;94.30
55785;DHT22;41709;52.536;5.688;2023-04-01T09:49:58;10.20;94.10
55785;DHT22;41709;52.536;5.688;2023-04-01T09:52:38;10.30;94.20
55785;DHT22;41709;52.536;5.688;2023-04-01T09:55:33;10.20;93.80
55785;DHT22;41709;52.536;5.688;2023-04-01T10:00:52;10.20;93.90
55785;DHT22;41709;52.536;5.688;2023-04-01T10:09:44;10.20;94.10
55785;DHT22;41709;52.536;5.688;2023-04-01T10:18:31;10.20;94.00
55785;DHT22;41709;52.536;5.688;2023-04-01T10:40:45;10.10;94.40
55785;DHT22;41709;52.536;5.688;2023-04-01T10:56:46;10.30;94.20
55785;DHT22;41709;52.536;5.688;2023-04-01T11:05:30;10.40;94.70
55785;DHT22;41709;52.536;5.688;2023-04-01T11:08:37;10.30;94.60
55785;DHT22;41709;52.536;5.688;2023-04-01T11:22:18;10.40;94.40
55785;DHT22;41709;52.536;5.688;2023-04-01T11:25:03;10.40;94.70
55785;DHT22;41709;52.536;5.688;2023-04-01T11:33:12;10.30;94.90
55785;DHT22;41709;52.536;5.688;2023-04-01T11:35:55;10.30;94.90
55785;DHT22;41709;52.536;5.688;2023-04-01T11:44:26;10.40;95.20
55785;DHT22;41709;52.536;5.688;2023-04-01T11:50:29;10.50;95.10
55785;DHT22;41709;52.536;5.688;2023-04-01T11:53:37;10.50;94.90
55785;DHT22;41709;52.536;5.688;2023-04-01T12:02:08;10.50;95.20
55785;DHT22;41709;52.536;5.688;2023-04-01T12:07:34;10.60;95.50
55785;DHT22;41709;52.536;5.688;2023-04-01T12:10:19;10.60;95.70
55785;DHT22;41709;52.536;5.688;2023-04-01T12:19:14;10.60;95.70
55785;DHT22;41709;52.536;5.688;2023-04-01T12:24:52;10.80;95.40
55785;DHT22;41709;52.536;5.688;2023-04-01T12:27:41;10.80;95.30
55785;DHT22;41709;52.536;5.688;2023-04-01T12:38:26;10.30;95.30
55785;DHT22;41709;52.536;5.688;2023-04-01T12:41:09;10.30;95.60
55785;DHT22;41709;52.536;5.688;2023-04-01T12:44:00;10.30;95.80
55785;DHT22;41709;52.536;5.688;2023-04-01T12:46:45;10.30;95.70
55785;DHT22;41709;52.536;5.688;2023-04-01T12:52:00;10.20;95.60
55785;DHT22;41709;52.536;5.688;2023-04-01T13:01:01;10.20;95.10
55785;DHT22;41709;52.536;5.688;2023-04-01T13:17:01;9.80;95.30
55785;DHT22;41709;52.536;5.688;2023-04-01T13:19:45;9.80;95.30
55785;DHT22;41709;52.536;5.688;2023-04-01T13:22:35;9.90;95.00
55785;DHT22;41709;52.536;5.688;2023-04-01T13:25:36;9.80;95.00
55785;DHT22;41709;52.536;5.688;2023-04-01T13:28:28;9.70;95.30
55785;DHT22;41709;52.536;5.688;2023-04-01T13:31:05;9.70;95.40
55785;DHT22;41709;52.536;5.688;2023-04-01T13:33:50;9.60;95.50
55785;DHT22;41709;52.536;5.688;2023-04-01T13:44:41;9.60;95.90
55785;DHT22;41709;52.536;5.688;2023-04-01T13:53:24;9.40;95.50
55785;DHT22;41709;52.536;5.688;2023-04-01T13:56:04;9.40;95.50
55785;DHT22;41709;52.536;5.688;2023-04-01T13:59:04;9.40;95.40
55785;DHT22;41709;52.536;5.688;2023-04-01T14:01:39;9.40;95.50
55785;DHT22;41709;52.536;5.688;2023-04-01T14:12:12;9.50;95.60
55785;DHT22;41709;52.536;5.688;2023-04-01T14:15:16;9.40;95.50
55785;DHT22;41709;52.536;5.688;2023-04-01T14:21:17;9.30;95.60
55785;DHT22;41709;52.536;5.688;2023-04-01T14:26:35;9.40;95.90
55785;DHT22;41709;52.536;5.688;2023-04-01T14:29:24;9.40;95.70
55785;DHT22;41709;52.536;5.688;2023-04-01T14:42:54;9.20;95.80
55785;DHT22;41709;52.536;5.688;2023-04-01T14:45:51;9.10;96.00
55785;DHT22;41709;52.536;5.688;2023-04-01T14:48:38;9.10;96.10
55785;DHT22;41709;52.536;5.688;2023-04-01T14:51:34;9.10;96.00
55785;DHT22;41709;52.536;5.688;2023-04-01T14:54:15;8.90;96.30
55785;DHT22;41709;52.536;5.688;2023-04-01T14:59:46;8.80;96.50
55785;DHT22;41709;52.536;5.688;2023-04-01T15:05:05;8.70;96.50
55785;DHT22;41709;52.536;5.688;2023-04-01T15:16:05;8.60;96.60
55785;DHT22;41709;52.536;5.688;2023-04-01T15:18:46;8.50;96.70
55785;DHT22;41709;52.536;5.688;2023-04-01T15:43:47;8.20;96.30
55785;DHT22;41709;52.536;5.688;2023-04-01T15:49:34;8.00;96.40
55785;DHT22;41709;52.536;5.688;2023-04-01T15:57:59;8.00;96.40
55785;DHT22;41709;52.536;5.688;2023-04-01T16:00:31;8.10;96.40
55785;DHT22;41709;52.536;5.688;2023-04-01T16:17:31;8.00;96.20
55785;DHT22;41709;52.536;5.688;2023-04-01T16:22:38;7.80;96.10
55785;DHT22;41709;52.536;5.688;2023-04-01T16:25:39;7.80;96.30
55785;DHT22;41709;52.536;5.688;2023-04-01T16:28:31;7.70;96.30
55785;DHT22;41709;52.536;5.688;2023-04-01T16:31:12;7.60;96.30
55785;DHT22;41709;52.536;5.688;2023-04-01T16:34:17;7.70;96.30
55785;DHT22;41709;52.536;5.688;2023-04-01T16:37:11;7.70;96.50
55785;DHT22;41709;52.536;5.688;2023-04-01T16:47:56;7.70;95.80
55785;DHT22;41709;52.536;5.688;2023-04-01T16:50:24;7.60;96.00
55785;DHT22;41709;52.536;5.688;2023-04-01T16:53:08;7.60;96.10
55785;DHT22;41709;52.536;5.688;2023-04-01T16:58:34;7.50;96.30
55785;DHT22;41709;52.536;5.688;2023-04-01T17:03:42;7.60;96.70
55785;DHT22;41709;52.536;5.688;2023-04-01T17:06:37;7.70;96.30
55785;DHT22;41709;52.536;5.688;2023-04-01T17:18:09;7.50;96.60
55785;DHT22;41709;52.536;5.688;2023-04-01T17:20:43;7.40;96.60
55785;DHT22;41709;52.536;5.688;2023-04-01T17:23:28;7.30;96.80
55785;DHT22;41709;52.536;5.688;2023-04-01T17:26:13;7.30;96.90
55785;DHT22;41709;52.536;5.688;2023-04-01T17:29:09;7.30;96.80
55785;DHT22;41709;52.536;5.688;2023-04-01T17:31:57;7.40;96.80
55785;DHT22;41709;52.536;5.688;2023-04-01T17:40:27;7.20;96.70
55785;DHT22;41709;52.536;5.688;2023-04-01T17:54:15;6.90;96.80
55785;DHT22;41709;52.536;5.688;2023-04-01T17:57:01;7.00;96.50
55785;DHT22;41709;52.536;5.688;2023-04-01T17:59:38;7.10;96.20
55785;DHT22;41709;52.536;5.688;2023-04-01T18:02:24;6.90;96.30
55785;DHT22;41709;52.536;5.688;2023-04-01T18:08:16;6.80;96.20
55785;DHT22;41709;52.536;5.688;2023-04-01T18:13:34;6.70;96.20
55785;DHT22;41709;52.536;5.688;2023-04-01T18:16:28;6.70;96.10
55785;DHT22;41709;52.536;5.688;2023-04-01T18:19:06;6.80;95.90
55785;DHT22;41709;52.536;5.688;2023-04-01T18:21:45;6.70;95.90
55785;DHT22;41709;52.536;5.688;2023-04-01T18:24:32;6.70;95.90
55785;DHT22;41709;52.536;5.688;2023-04-01T18:27:04;6.60;95.80
55785;DHT22;41709;52.536;5.688;2023-04-01T18:29:38;6.60;95.70
55785;DHT22;41709;52.536;5.688;2023-04-01T18:38:04;6.50;95.80
55785;DHT22;41709;52.536;5.688;2023-04-01T18:40:38;6.60;95.80
55785;DHT22;41709;52.536;5.688;2023-04-01T18:46:00;6.50;96.00
55785;DHT22;41709;52.536;5.688;2023-04-01T18:48:48;6.50;96.10
55785;DHT22;41709;52.536;5.688;2023-04-01T18:51:21;6.40;95.90
55785;DHT22;41709;52.536;5.688;2023-04-01T18:54:00;6.30;95.80
55785;DHT22;41709;52.536;5.688;2023-04-01T18:56:34;6.30;95.80
55785;DHT22;41709;52.536;5.688;2023-04-01T19:04:43;6.20;95.90
55785;DHT22;41709;52.536;5.688;2023-04-01T19:09:51;6.10;96.00
55785;DHT22;41709;52.536;5.688;2023-04-01T19:15:28;6.10;96.30
55785;DHT22;41709;52.536;5.688;2023-04-01T19:20:45;6.20;96.00
55785;DHT22;41709;52.536;5.688;2023-04-01T19:26:12;6.10;95.60
55785;DHT22;41709;52.536;5.688;2023-04-01T19:32:00;6.10;95.70
55785;DHT22;41709;52.536;5.688;2023-04-01T19:34:43;6.10;95.60
55785;DHT22;41709;52.536;5.688;2023-04-01T19:40:16;6.10;95.40
55785;DHT22;41709;52.536;5.688;2023-04-01T19:42:56;6.10;95.40
55785;DHT22;41709;52.536;5.688;2023-04-01T19:51:10;5.90;95.60
55785;DHT22;41709;52.536;5.688;2023-04-01T19:56:23;5.80;95.60
55785;DHT22;41709;52.536;5.688;2023-04-01T19:59:00;5.80;95.90
55785;DHT22;41709;52.536;5.688;2023-04-01T20:01:34;5.70;95.80
55785;DHT22;41709;52.536;5.688;2023-04-01T20:04:08;5.70;95.90
55785;DHT22;41709;52.536;5.688;2023-04-01T20:12:09;5.70;95.80
55785;DHT22;41709;52.536;5.688;2023-04-01T20:14:51;5.70;95.80
55785;DHT22;41709;52.536;5.688;2023-04-01T20:27:45;5.40;95.70
55785;DHT22;41709;52.536;5.688;2023-04-01T20:49:59;5.30;95.50
55785;DHT22;41709;52.536;5.688;2023-04-01T20:52:41;5.30;95.70
55785;DHT22;41709;52.536;5.688;2023-04-01T21:07:19;5.30;95.50
55785;DHT22;41709;52.536;5.688;2023-04-01T21:10:14;5.20;95.50
55785;DHT22;41709;52.536;5.688;2023-04-01T21:12:51;5.20;95.50
55785;DHT22;41709;52.536;5.688;2023-04-01T21:21:23;5.30;95.50
55785;DHT22;41709;52.536;5.688;2023-04-01T21:26:30;5.30;95.30
55785;DHT22;41709;52.536;5.688;2023-04-01T21:34:48;5.20;95.40
55785;DHT22;41709;52.536;5.688;2023-04-01T21:49:09;5.30;94.90
55785;DHT22;41709;52.536;5.688;2023-04-01T22:07:59;5.00;95.10
55785;DHT22;41709;52.536;5.688;2023-04-01T22:13:23;5.10;95.10
55785;DHT22;41709;52.536;5.688;2023-04-01T22:21:44;5.10;94.90
55785;DHT22;41709;52.536;5.688;2023-04-01T22:24:24;5.10;95.00
55785;DHT22;41709;52.536;5.688;2023-04-01T22:27:03;5.00;94.90
55785;DHT22;41709;52.536;5.688;2023-04-01T22:32:31;4.90;95.10
55785;DHT22;41709;52.536;5.688;2023-04-01T22:35:09;4.90;95.10
55785;DHT22;41709;52.536;5.688;2023-04-01T22:37:38;4.90;95.10
55785;DHT22;41709;52.536;5.688;2023-04-01T22:55:54;4.70;95.10
55785;DHT22;41709;52.536;5.688;2023-04-01T22:58:28;4.70;95.20
55785;DHT22;41709;52.536;5.688;2023-04-01T23:00:59;4.80;95.20
55785;DHT22;41709;52.536;5.688;2023-04-01T23:03:35;4.70;94.90
55785;DHT22;41709;52.536;5.688;2023-04-01T23:06:05;4.70;94.90
55785;DHT22;41709;52.536;5.688;2023-04-01T23:08:52;4.70;94.90
55785;DHT22;41709;52.536;5.688;2023-04-01T23:11:51;4.70;94.90
55785;DHT22;41709;52.536;5.688;2023-04-01T23:19:49;4.80;94.80
55785;DHT22;41709;52.536;5.688;2023-04-01T23:25:12;4.70;94.70
55785;DHT22;41709;52.536;5.688;2023-04-01T23:27:56;4.80;94.70
55785;DHT22;41709;52.536;5.688;2023-04-01T23:35:53;4.60;94.60
55785;DHT22;41709;52.536;5.688;2023-04-01T23:38:25;4.60;94.50
55785;DHT22;41709;52.536;5.688;2023-04-01T23:40:53;4.60;94.40
55785;DHT22;41709;52.536;5.688;2023-04-01T23:43:25;4.60;94.60
55785;DHT22;41709;52.536;5.688;2023-04-01T23:45:54;4.60;94.50
55785;DHT22;41709;52.536;5.688;2023-04-01T23:48:26;4.60;94.50
55785;DHT22;41709;52.536;5.688;2023-04-01T23:50:52;4.60;94.40
55785;DHT22;41709;52.536;5.688;2023-04-01T23:53:25;4.70;94.40
55785;DHT22;41709;52.536;5.688;2023-04-01T23:55:52;4.80;94.10
55785;DHT22;41709;52.536;5.688;2023-04-01T23:58:48;4.90;94.00
